Terminal Aerodrome Forecast
Issued by NWS

Home | Current Version | Previous Version | Text Only | Print | Product List | Glossary On
Versions: 1 2 3 4 5 6 7 8 9 10 11 12 13 14 15 16 17 18 19 20 21 22 23 24 25 26 27 28 29 30 31
000
FTAK31 PAFA 121859 AAA
TAFABT
TAF AMD
PABT 121859Z 1219/1318 35003KT 6SM -SN BR SCT025 OVC050
      TEMPO 1219/1221 4SM -SN OVC025
     FM130100 01005KT P6SM VCSH BKN050=

USA.gov is the U.S. government's official web portal to all federal, state and local government web resources and services.